Main page
METAR-TAF:

METAR-TAF

Airports :

Edinburgh Airport

Edinburgh, Scotland

latitude: 55-57N, longitude: 003-21W, elevation: 41 m

Current weather observation

The report was made 24 minutes ago, at 17:50 UTC
Wind 7 kt from the West/Southwest
Temperature 11°C
Humidity 82%
Pressure 1035 hPa
Visibility 10 km or more
no clouds below 1500 m and no cumulonimbus

METAR: EGPH 241750Z 25007KT CAVOK 11/08 Q1035

Time: 19:14 (18:14 UTC)

Forecast

The report was made 1 hour and 18 minutes ago, at 16:56 UTC
Forecast valid from 24 at 18 UTC to 25 at 18 UTC
Wind 6 kt from the West/Southwest
Visibility 10 km or more
Few clouds at a height of 4000 ft
Becoming
from 25 at 09 UTC to 25 at 12 UTC
Wind 16 kt from the Southwest
Temporary
from 25 at 11 UTC to 25 at 18 UTC
Wind 20 kt from the Southwest with gusts up to 30 kt

TAF: EGPH 241656Z 2418/2518 24006KT 9999 FEW040 BECMG 2509/2512 22016KT TEMPO 2511/2518 22020G30KT

Weather observations and forecasts of more than 4000 airports (METAR and TAF reports).

The available stations are represented by yellow and red dots on the map.

Hover mouse over dot to see the name of the station.

Then click to see weather observations and forecasts.

To change the map : click on the green buttons with a black cross to zoom in, on the green button with a dash to zoom out, or on the green arrows for adjacent maps.


METAR-TAF: